Golden Lake, Canada
Current Conditions -  °F | °C
As of 10:08 PM on Monday 20 Oct 2014 (Local Time) from CYWA Reporting Station
Overcast Overcast  
Wind Chill: 37°   Ceiling: 400
Heat Index: 43°   Visibility: 4mi
Dew Point: 39°   Wind: 9mph
Humidity: 87%   Direction: 110°ESE
Pressure: 29.86"   Gusts: NA
Location:  45.58°N, 77.25°W
Report Text: CYWA 210208Z AUTO 11008KT 4SM OVC004 06/04 A2986
Loading
Personal Weather Stations






























Interactive Weather Map
Tropical Storm Tracking
New forecast layout! Learn more

10-Day Weather Forecast

Advertisements
Track Severe Weather on mobile